Terminal Aerodrome Forecast
Issued by NWS

Home | Current Version | Previous Version | Text Only | Print | Product List | Glossary On
Versions: 1 2 3 4 5 6 7 8 9 10 11 12 13 14 15 16 17 18 19 20
097
FTUS43 KGRB 261724
TAFMTW
TAF
KMTW 261724Z 2618/2718 04008KT 5SM -RA BR OVC004
      TEMPO 2618/2621 2SM -RA OVC003
     FM262100 36005KT 2SM -RA BR OVC003
     FM270600 34004KT 1SM -DZ BR OVC003
     FM271400 01004KT 3SM BR OVC008
     FM271700 03004KT P6SM OVC008=

USA.gov is the U.S. government's official web portal to all federal, state and local government web resources and services.